sensor_id;sensor_type;location;lat;lon;timestamp;temperature;humidity
1786;DHT22;890;48.158;11.540;2022-07-05T00:00:37;19.30;99.90
1786;DHT22;890;48.158;11.540;2022-07-05T00:03:02;19.40;99.90
1786;DHT22;890;48.158;11.540;2022-07-05T00:05:28;19.30;99.90
1786;DHT22;890;48.158;11.540;2022-07-05T00:07:54;19.30;99.90
1786;DHT22;890;48.158;11.540;2022-07-05T00:10:19;19.30;99.90
1786;DHT22;890;48.158;11.540;2022-07-05T00:12:45;19.20;99.90
1786;DHT22;890;48.158;11.540;2022-07-05T00:15:10;19.10;99.90
1786;DHT22;890;48.158;11.540;2022-07-05T00:17:36;19.10;99.90
1786;DHT22;890;48.158;11.540;2022-07-05T00:20:03;19.10;99.90
1786;DHT22;890;48.158;11.540;2022-07-05T00:22:29;19.10;99.90
1786;DHT22;890;48.158;11.540;2022-07-05T00:24:54;19.10;99.90
1786;DHT22;890;48.158;11.540;2022-07-05T00:27:20;19.00;99.90
1786;DHT22;890;48.158;11.540;2022-07-05T00:29:46;19.00;99.90
1786;DHT22;890;48.158;11.540;2022-07-05T00:32:12;19.00;99.90
1786;DHT22;890;48.158;11.540;2022-07-05T00:34:37;19.10;99.90
1786;DHT22;890;48.158;11.540;2022-07-05T00:37:03;19.10;99.90
1786;DHT22;890;48.158;11.540;2022-07-05T00:39:28;19.20;99.90
1786;DHT22;890;48.158;11.540;2022-07-05T00:41:54;19.20;99.90
1786;DHT22;890;48.158;11.540;2022-07-05T00:44:32;19.20;99.90
1786;DHT22;890;48.158;11.540;2022-07-05T00:46:58;19.20;99.90
1786;DHT22;890;48.158;11.540;2022-07-05T00:49:24;19.20;99.90
1786;DHT22;890;48.158;11.540;2022-07-05T00:51:49;19.10;99.90
1786;DHT22;890;48.158;11.540;2022-07-05T00:54:15;19.10;99.90
1786;DHT22;890;48.158;11.540;2022-07-05T00:56:41;19.20;99.90
1786;DHT22;890;48.158;11.540;2022-07-05T00:59:06;19.20;99.90
1786;DHT22;890;48.158;11.540;2022-07-05T01:01:32;19.30;99.90
1786;DHT22;890;48.158;11.540;2022-07-05T01:03:57;19.30;99.90
1786;DHT22;890;48.158;11.540;2022-07-05T01:06:23;19.40;99.90
1786;DHT22;890;48.158;11.540;2022-07-05T01:08:49;19.40;99.90
1786;DHT22;890;48.158;11.540;2022-07-05T01:11:15;19.40;99.90
1786;DHT22;890;48.158;11.540;2022-07-05T01:13:41;19.40;99.90
1786;DHT22;890;48.158;11.540;2022-07-05T01:16:07;19.40;99.90
1786;DHT22;890;48.158;11.540;2022-07-05T01:18:33;19.40;99.90
1786;DHT22;890;48.158;11.540;2022-07-05T01:21:01;19.40;99.90
1786;DHT22;890;48.158;11.540;2022-07-05T01:23:29;19.30;99.90
1786;DHT22;890;48.158;11.540;2022-07-05T01:25:56;19.30;99.90
1786;DHT22;890;48.158;11.540;2022-07-05T01:28:23;19.20;99.90
1786;DHT22;890;48.158;11.540;2022-07-05T01:30:49;19.10;99.90
1786;DHT22;890;48.158;11.540;2022-07-05T01:33:15;19.00;99.90
1786;DHT22;890;48.158;11.540;2022-07-05T01:35:42;19.00;99.90
1786;DHT22;890;48.158;11.540;2022-07-05T01:38:10;19.00;99.90
1786;DHT22;890;48.158;11.540;2022-07-05T01:40:36;19.10;99.90
1786;DHT22;890;48.158;11.540;2022-07-05T01:43:02;19.20;99.90
1786;DHT22;890;48.158;11.540;2022-07-05T01:45:28;19.20;99.90
1786;DHT22;890;48.158;11.540;2022-07-05T01:48:21;19.30;99.90
1786;DHT22;890;48.158;11.540;2022-07-05T01:51:05;19.20;99.90
1786;DHT22;890;48.158;11.540;2022-07-05T01:53:33;19.20;99.90
1786;DHT22;890;48.158;11.540;2022-07-05T01:56:01;19.20;99.90
1786;DHT22;890;48.158;11.540;2022-07-05T01:58:28;19.30;99.90
1786;DHT22;890;48.158;11.540;2022-07-05T02:00:55;19.30;99.90
1786;DHT22;890;48.158;11.540;2022-07-05T02:03:22;19.40;99.90
1786;DHT22;890;48.158;11.540;2022-07-05T02:05:48;19.30;99.90
1786;DHT22;890;48.158;11.540;2022-07-05T02:08:15;19.40;99.90
1786;DHT22;890;48.158;11.540;2022-07-05T02:10:42;19.30;99.90
1786;DHT22;890;48.158;11.540;2022-07-05T02:13:08;19.30;99.90
1786;DHT22;890;48.158;11.540;2022-07-05T02:15:35;19.30;99.90
1786;DHT22;890;48.158;11.540;2022-07-05T02:18:02;19.30;99.90
1786;DHT22;890;48.158;11.540;2022-07-05T02:20:29;19.30;99.90
1786;DHT22;890;48.158;11.540;2022-07-05T02:22:55;19.20;99.90
1786;DHT22;890;48.158;11.540;2022-07-05T02:25:21;19.20;99.90
1786;DHT22;890;48.158;11.540;2022-07-05T02:27:47;19.20;99.90
1786;DHT22;890;48.158;11.540;2022-07-05T02:30:14;19.20;99.90
1786;DHT22;890;48.158;11.540;2022-07-05T02:32:40;19.00;99.90
1786;DHT22;890;48.158;11.540;2022-07-05T02:35:07;19.20;99.90
1786;DHT22;890;48.158;11.540;2022-07-05T02:37:33;19.10;99.90
1786;DHT22;890;48.158;11.540;2022-07-05T02:39:59;19.10;99.90
1786;DHT22;890;48.158;11.540;2022-07-05T02:42:24;19.10;99.90
1786;DHT22;890;48.158;11.540;2022-07-05T02:44:50;19.10;99.90
1786;DHT22;890;48.158;11.540;2022-07-05T02:47:15;19.20;99.90
1786;DHT22;890;48.158;11.540;2022-07-05T02:49:41;19.20;99.90
1786;DHT22;890;48.158;11.540;2022-07-05T02:52:06;19.30;99.90
1786;DHT22;890;48.158;11.540;2022-07-05T02:54:32;19.30;99.90
1786;DHT22;890;48.158;11.540;2022-07-05T02:56:59;19.30;99.90
1786;DHT22;890;48.158;11.540;2022-07-05T02:59:24;19.30;99.90
1786;DHT22;890;48.158;11.540;2022-07-05T03:01:50;19.30;99.90
1786;DHT22;890;48.158;11.540;2022-07-05T03:04:16;19.30;99.90
1786;DHT22;890;48.158;11.540;2022-07-05T03:06:41;19.40;99.90
1786;DHT22;890;48.158;11.540;2022-07-05T03:09:07;19.40;99.90
1786;DHT22;890;48.158;11.540;2022-07-05T03:11:32;19.40;99.90
1786;DHT22;890;48.158;11.540;2022-07-05T03:13:58;19.40;99.90
1786;DHT22;890;48.158;11.540;2022-07-05T03:16:24;19.30;99.90
1786;DHT22;890;48.158;11.540;2022-07-05T03:18:50;19.30;99.90
1786;DHT22;890;48.158;11.540;2022-07-05T03:21:16;19.30;99.90
1786;DHT22;890;48.158;11.540;2022-07-05T03:23:41;19.30;99.90
1786;DHT22;890;48.158;11.540;2022-07-05T03:26:07;19.30;99.90
1786;DHT22;890;48.158;11.540;2022-07-05T03:28:33;19.30;99.90
1786;DHT22;890;48.158;11.540;2022-07-05T03:30:58;19.30;99.90
1786;DHT22;890;48.158;11.540;2022-07-05T03:33:24;19.30;99.90
1786;DHT22;890;48.158;11.540;2022-07-05T03:35:50;19.30;99.90
1786;DHT22;890;48.158;11.540;2022-07-05T03:38:16;19.20;99.90
1786;DHT22;890;48.158;11.540;2022-07-05T03:40:41;19.30;99.90
1786;DHT22;890;48.158;11.540;2022-07-05T03:43:07;19.20;99.90
1786;DHT22;890;48.158;11.540;2022-07-05T03:45:32;19.20;99.90
1786;DHT22;890;48.158;11.540;2022-07-05T03:47:59;19.10;99.90
1786;DHT22;890;48.158;11.540;2022-07-05T03:50:25;19.10;99.90
1786;DHT22;890;48.158;11.540;2022-07-05T03:52:51;19.10;99.90
1786;DHT22;890;48.158;11.540;2022-07-05T03:55:16;19.10;99.90
1786;DHT22;890;48.158;11.540;2022-07-05T03:57:42;19.00;99.90
1786;DHT22;890;48.158;11.540;2022-07-05T04:00:09;18.90;99.90
1786;DHT22;890;48.158;11.540;2022-07-05T04:02:34;18.90;99.90
1786;DHT22;890;48.158;11.540;2022-07-05T04:05:00;18.80;99.90
1786;DHT22;890;48.158;11.540;2022-07-05T04:07:26;18.80;99.90
1786;DHT22;890;48.158;11.540;2022-07-05T04:09:51;18.80;99.90
1786;DHT22;890;48.158;11.540;2022-07-05T04:12:17;18.80;99.90
1786;DHT22;890;48.158;11.540;2022-07-05T04:14:42;18.80;99.90
1786;DHT22;890;48.158;11.540;2022-07-05T04:17:08;18.90;99.90
1786;DHT22;890;48.158;11.540;2022-07-05T04:19:34;18.90;99.90
1786;DHT22;890;48.158;11.540;2022-07-05T04:21:59;19.00;99.90
1786;DHT22;890;48.158;11.540;2022-07-05T04:24:25;19.00;99.90
1786;DHT22;890;48.158;11.540;2022-07-05T04:26:51;19.10;99.90
1786;DHT22;890;48.158;11.540;2022-07-05T04:29:16;19.20;99.90
1786;DHT22;890;48.158;11.540;2022-07-05T04:31:42;19.30;99.90
1786;DHT22;890;48.158;11.540;2022-07-05T04:34:08;19.30;99.90
1786;DHT22;890;48.158;11.540;2022-07-05T04:36:34;19.40;99.90
1786;DHT22;890;48.158;11.540;2022-07-05T04:39:00;19.40;99.90
1786;DHT22;890;48.158;11.540;2022-07-05T04:41:25;19.40;99.90
1786;DHT22;890;48.158;11.540;2022-07-05T04:43:51;19.50;99.90
1786;DHT22;890;48.158;11.540;2022-07-05T04:46:16;19.50;99.90
1786;DHT22;890;48.158;11.540;2022-07-05T04:48:42;19.60;99.90
1786;DHT22;890;48.158;11.540;2022-07-05T04:51:08;19.50;99.90
1786;DHT22;890;48.158;11.540;2022-07-05T04:53:33;19.50;99.90
1786;DHT22;890;48.158;11.540;2022-07-05T04:55:59;19.60;99.90
1786;DHT22;890;48.158;11.540;2022-07-05T04:58:24;19.70;99.90
1786;DHT22;890;48.158;11.540;2022-07-05T05:00:50;19.60;99.90
1786;DHT22;890;48.158;11.540;2022-07-05T05:03:16;19.70;99.90
1786;DHT22;890;48.158;11.540;2022-07-05T05:05:42;19.80;99.90
1786;DHT22;890;48.158;11.540;2022-07-05T05:08:07;19.90;99.90
1786;DHT22;890;48.158;11.540;2022-07-05T05:10:33;20.00;99.90
1786;DHT22;890;48.158;11.540;2022-07-05T05:12:58;20.00;99.90
1786;DHT22;890;48.158;11.540;2022-07-05T05:15:24;20.00;99.90
1786;DHT22;890;48.158;11.540;2022-07-05T05:17:50;20.00;99.90
1786;DHT22;890;48.158;11.540;2022-07-05T05:20:17;20.00;99.90
1786;DHT22;890;48.158;11.540;2022-07-05T05:22:44;19.90;99.90
1786;DHT22;890;48.158;11.540;2022-07-05T05:25:10;19.90;99.90
1786;DHT22;890;48.158;11.540;2022-07-05T05:27:47;19.90;99.90
1786;DHT22;890;48.158;11.540;2022-07-05T05:30:13;19.90;99.90
1786;DHT22;890;48.158;11.540;2022-07-05T05:32:40;20.00;99.90
1786;DHT22;890;48.158;11.540;2022-07-05T05:35:06;20.10;99.90
1786;DHT22;890;48.158;11.540;2022-07-05T05:37:45;20.20;99.90
1786;DHT22;890;48.158;11.540;2022-07-05T05:40:11;20.20;99.90
1786;DHT22;890;48.158;11.540;2022-07-05T05:42:37;20.30;99.90
1786;DHT22;890;48.158;11.540;2022-07-05T05:45:03;20.40;99.90
1786;DHT22;890;48.158;11.540;2022-07-05T05:47:28;20.40;99.90
1786;DHT22;890;48.158;11.540;2022-07-05T05:49:54;20.50;99.90
1786;DHT22;890;48.158;11.540;2022-07-05T05:52:20;20.60;99.90
1786;DHT22;890;48.158;11.540;2022-07-05T05:54:45;20.70;99.90
1786;DHT22;890;48.158;11.540;2022-07-05T05:57:11;20.70;99.90
1786;DHT22;890;48.158;11.540;2022-07-05T05:59:36;20.60;99.90
1786;DHT22;890;48.158;11.540;2022-07-05T06:02:02;20.60;99.90
1786;DHT22;890;48.158;11.540;2022-07-05T06:04:27;20.60;99.90
1786;DHT22;890;48.158;11.540;2022-07-05T06:06:53;20.60;99.90
1786;DHT22;890;48.158;11.540;2022-07-05T06:09:19;20.60;99.90
1786;DHT22;890;48.158;11.540;2022-07-05T06:11:44;20.60;99.90
1786;DHT22;890;48.158;11.540;2022-07-05T06:14:10;20.70;99.90
1786;DHT22;890;48.158;11.540;2022-07-05T06:16:37;20.90;99.90
1786;DHT22;890;48.158;11.540;2022-07-05T06:19:02;21.00;99.90
1786;DHT22;890;48.158;11.540;2022-07-05T06:21:28;21.10;99.90
1786;DHT22;890;48.158;11.540;2022-07-05T06:23:53;21.10;99.90
1786;DHT22;890;48.158;11.540;2022-07-05T06:26:19;21.10;99.90
1786;DHT22;890;48.158;11.540;2022-07-05T06:28:45;21.00;99.90
1786;DHT22;890;48.158;11.540;2022-07-05T06:31:10;21.10;99.90
1786;DHT22;890;48.158;11.540;2022-07-05T06:33:36;21.30;99.90
1786;DHT22;890;48.158;11.540;2022-07-05T06:36:01;21.30;99.90
1786;DHT22;890;48.158;11.540;2022-07-05T06:38:27;21.30;99.90
1786;DHT22;890;48.158;11.540;2022-07-05T06:40:53;21.40;99.90
1786;DHT22;890;48.158;11.540;2022-07-05T06:43:19;21.50;99.90
1786;DHT22;890;48.158;11.540;2022-07-05T06:45:45;21.50;99.90
1786;DHT22;890;48.158;11.540;2022-07-05T06:48:11;21.60;99.90
1786;DHT22;890;48.158;11.540;2022-07-05T06:50:39;21.60;99.90
1786;DHT22;890;48.158;11.540;2022-07-05T06:53:06;21.60;99.90
1786;DHT22;890;48.158;11.540;2022-07-05T06:55:32;21.80;99.90
1786;DHT22;890;48.158;11.540;2022-07-05T06:57:58;21.90;99.90
1786;DHT22;890;48.158;11.540;2022-07-05T07:00:24;22.00;99.90
1786;DHT22;890;48.158;11.540;2022-07-05T07:02:50;22.00;99.90
1786;DHT22;890;48.158;11.540;2022-07-05T07:05:15;22.10;99.90
1786;DHT22;890;48.158;11.540;2022-07-05T07:07:41;22.20;99.90
1786;DHT22;890;48.158;11.540;2022-07-05T07:10:25;22.30;99.90
1786;DHT22;890;48.158;11.540;2022-07-05T07:12:51;22.40;99.90
1786;DHT22;890;48.158;11.540;2022-07-05T07:15:16;22.60;99.90
1786;DHT22;890;48.158;11.540;2022-07-05T07:17:42;22.70;99.90
1786;DHT22;890;48.158;11.540;2022-07-05T07:20:08;22.60;99.90
1786;DHT22;890;48.158;11.540;2022-07-05T07:22:34;22.60;99.90
1786;DHT22;890;48.158;11.540;2022-07-05T07:24:59;22.50;99.90
1786;DHT22;890;48.158;11.540;2022-07-05T07:27:25;22.50;99.90
1786;DHT22;890;48.158;11.540;2022-07-05T07:29:50;22.60;99.90
1786;DHT22;890;48.158;11.540;2022-07-05T07:32:16;22.60;99.90
1786;DHT22;890;48.158;11.540;2022-07-05T07:34:44;22.70;99.90
1786;DHT22;890;48.158;11.540;2022-07-05T07:37:10;22.80;99.90
1786;DHT22;890;48.158;11.540;2022-07-05T07:39:39;22.70;99.90
1786;DHT22;890;48.158;11.540;2022-07-05T07:42:05;22.80;99.90
1786;DHT22;890;48.158;11.540;2022-07-05T07:44:31;22.80;99.90
1786;DHT22;890;48.158;11.540;2022-07-05T07:46:56;22.90;99.90
1786;DHT22;890;48.158;11.540;2022-07-05T07:49:22;23.00;99.90
1786;DHT22;890;48.158;11.540;2022-07-05T07:51:48;23.10;99.90
1786;DHT22;890;48.158;11.540;2022-07-05T07:54:13;23.30;99.90
1786;DHT22;890;48.158;11.540;2022-07-05T07:56:39;23.40;99.90
1786;DHT22;890;48.158;11.540;2022-07-05T07:59:05;23.60;99.90
1786;DHT22;890;48.158;11.540;2022-07-05T08:01:30;23.60;99.90
1786;DHT22;890;48.158;11.540;2022-07-05T08:03:56;23.60;99.90
1786;DHT22;890;48.158;11.540;2022-07-05T08:06:22;23.60;99.90
1786;DHT22;890;48.158;11.540;2022-07-05T08:08:47;23.50;99.90
1786;DHT22;890;48.158;11.540;2022-07-05T08:11:14;23.50;99.90
1786;DHT22;890;48.158;11.540;2022-07-05T08:13:40;23.50;99.90
1786;DHT22;890;48.158;11.540;2022-07-05T08:16:07;23.50;99.90
1786;DHT22;890;48.158;11.540;2022-07-05T08:18:33;23.60;99.90
1786;DHT22;890;48.158;11.540;2022-07-05T08:21:17;23.60;99.90
1786;DHT22;890;48.158;11.540;2022-07-05T08:23:59;23.90;99.90
1786;DHT22;890;48.158;11.540;2022-07-05T08:26:25;24.10;99.90
1786;DHT22;890;48.158;11.540;2022-07-05T08:28:52;24.20;99.90
1786;DHT22;890;48.158;11.540;2022-07-05T08:31:18;24.40;99.90
1786;DHT22;890;48.158;11.540;2022-07-05T08:33:44;24.60;98.70
1786;DHT22;890;48.158;11.540;2022-07-05T08:36:09;24.60;97.20
1786;DHT22;890;48.158;11.540;2022-07-05T08:38:35;24.60;96.40
1786;DHT22;890;48.158;11.540;2022-07-05T08:41:02;24.60;95.40
1786;DHT22;890;48.158;11.540;2022-07-05T08:43:28;24.70;94.40
1786;DHT22;890;48.158;11.540;2022-07-05T08:45:55;24.80;92.80
1786;DHT22;890;48.158;11.540;2022-07-05T08:48:22;24.80;91.50
1786;DHT22;890;48.158;11.540;2022-07-05T08:50:51;24.80;91.00
1786;DHT22;890;48.158;11.540;2022-07-05T08:53:21;24.80;87.90
1786;DHT22;890;48.158;11.540;2022-07-05T08:55:47;24.70;84.60
1786;DHT22;890;48.158;11.540;2022-07-05T08:58:13;24.60;83.70
1786;DHT22;890;48.158;11.540;2022-07-05T09:00:39;24.60;83.50
1786;DHT22;890;48.158;11.540;2022-07-05T09:03:06;24.60;81.70
1786;DHT22;890;48.158;11.540;2022-07-05T09:05:37;24.70;80.10
1786;DHT22;890;48.158;11.540;2022-07-05T09:08:05;24.80;77.00
1786;DHT22;890;48.158;11.540;2022-07-05T09:10:34;24.90;75.10
1786;DHT22;890;48.158;11.540;2022-07-05T09:13:02;24.90;74.30
1786;DHT22;890;48.158;11.540;2022-07-05T09:15:28;24.90;73.30
1786;DHT22;890;48.158;11.540;2022-07-05T09:17:53;24.90;72.50
1786;DHT22;890;48.158;11.540;2022-07-05T09:20:19;24.90;70.90
1786;DHT22;890;48.158;11.540;2022-07-05T09:22:49;25.00;71.50
1786;DHT22;890;48.158;11.540;2022-07-05T09:28:06;25.40;70.70
1786;DHT22;890;48.158;11.540;2022-07-05T09:30:37;25.30;67.70
1786;DHT22;890;48.158;11.540;2022-07-05T09:33:16;25.30;67.40
1786;DHT22;890;48.158;11.540;2022-07-05T09:35:52;25.30;64.40
1786;DHT22;890;48.158;11.540;2022-07-05T09:38:25;25.30;62.90
1786;DHT22;890;48.158;11.540;2022-07-05T09:40:56;25.50;64.50
1786;DHT22;890;48.158;11.540;2022-07-05T09:43:27;25.60;63.10
1786;DHT22;890;48.158;11.540;2022-07-05T09:46:00;25.80;63.10
1786;DHT22;890;48.158;11.540;2022-07-05T09:48:30;25.90;63.60
1786;DHT22;890;48.158;11.540;2022-07-05T09:51:08;25.90;63.10
1786;DHT22;890;48.158;11.540;2022-07-05T09:53:49;26.00;62.30
1786;DHT22;890;48.158;11.540;2022-07-05T09:56:15;26.30;60.90
1786;DHT22;890;48.158;11.540;2022-07-05T09:58:41;26.70;61.00
1786;DHT22;890;48.158;11.540;2022-07-05T10:03:52;27.10;57.40
1786;DHT22;890;48.158;11.540;2022-07-05T10:06:20;27.30;58.20
1786;DHT22;890;48.158;11.540;2022-07-05T10:08:48;27.60;59.80
1786;DHT22;890;48.158;11.540;2022-07-05T10:11:19;27.50;57.30
1786;DHT22;890;48.158;11.540;2022-07-05T10:13:50;27.50;55.60
1786;DHT22;890;48.158;11.540;2022-07-05T10:16:16;27.70;57.90
1786;DHT22;890;48.158;11.540;2022-07-05T10:18:44;28.70;58.30
1786;DHT22;890;48.158;11.540;2022-07-05T10:21:15;29.70;56.30
1786;DHT22;890;48.158;11.540;2022-07-05T10:23:47;30.30;51.90
1786;DHT22;890;48.158;11.540;2022-07-05T10:26:15;29.80;48.30
1786;DHT22;890;48.158;11.540;2022-07-05T10:28:49;29.50;50.30
1786;DHT22;890;48.158;11.540;2022-07-05T10:31:16;29.90;51.00
1786;DHT22;890;48.158;11.540;2022-07-05T10:33:42;30.50;51.60
1786;DHT22;890;48.158;11.540;2022-07-05T10:36:11;30.60;48.60
1786;DHT22;890;48.158;11.540;2022-07-05T10:38:42;30.50;48.00
1786;DHT22;890;48.158;11.540;2022-07-05T10:41:12;30.80;48.60
1786;DHT22;890;48.158;11.540;2022-07-05T10:43:39;31.40;47.80
1786;DHT22;890;48.158;11.540;2022-07-05T10:46:04;31.90;45.70
1786;DHT22;890;48.158;11.540;2022-07-05T10:48:33;31.80;44.90
1786;DHT22;890;48.158;11.540;2022-07-05T10:58:47;32.10;46.40
1786;DHT22;890;48.158;11.540;2022-07-05T11:16:48;31.70;41.80
1786;DHT22;890;48.158;11.540;2022-07-05T11:19:34;32.60;41.20
1786;DHT22;890;48.158;11.540;2022-07-05T11:22:02;32.80;42.10
1786;DHT22;890;48.158;11.540;2022-07-05T11:24:31;32.90;40.20
1786;DHT22;890;48.158;11.540;2022-07-05T11:26:59;33.40;39.80
1786;DHT22;890;48.158;11.540;2022-07-05T11:29:52;33.70;39.60
1786;DHT22;890;48.158;11.540;2022-07-05T11:32:20;33.70;38.60
1786;DHT22;890;48.158;11.540;2022-07-05T11:34:53;33.80;38.80
1786;DHT22;890;48.158;11.540;2022-07-05T11:37:26;33.80;37.60
1786;DHT22;890;48.158;11.540;2022-07-05T11:42:31;34.10;36.60
1786;DHT22;890;48.158;11.540;2022-07-05T11:44:57;34.30;36.60
1786;DHT22;890;48.158;11.540;2022-07-05T11:47:23;34.70;35.80
1786;DHT22;890;48.158;11.540;2022-07-05T11:49:58;34.60;35.80
1786;DHT22;890;48.158;11.540;2022-07-05T11:52:29;34.50;34.40
1786;DHT22;890;48.158;11.540;2022-07-05T11:54:56;34.10;34.60
1786;DHT22;890;48.158;11.540;2022-07-05T11:57:22;33.80;34.20
1786;DHT22;890;48.158;11.540;2022-07-05T11:59:49;34.00;34.10
1786;DHT22;890;48.158;11.540;2022-07-05T12:02:15;34.60;34.10
1786;DHT22;890;48.158;11.540;2022-07-05T12:04:50;34.70;33.90
1786;DHT22;890;48.158;11.540;2022-07-05T12:07:29;34.60;33.10
1786;DHT22;890;48.158;11.540;2022-07-05T12:09:56;34.40;32.70
1786;DHT22;890;48.158;11.540;2022-07-05T12:12:40;34.60;32.60
1786;DHT22;890;48.158;11.540;2022-07-05T12:15:14;34.50;32.50
1786;DHT22;890;48.158;11.540;2022-07-05T12:17:44;34.40;33.00
1786;DHT22;890;48.158;11.540;2022-07-05T12:20:12;34.70;33.10
1786;DHT22;890;48.158;11.540;2022-07-05T12:22:42;35.00;31.50
1786;DHT22;890;48.158;11.540;2022-07-05T12:25:12;34.40;31.80
1786;DHT22;890;48.158;11.540;2022-07-05T12:27:39;34.10;32.00
1786;DHT22;890;48.158;11.540;2022-07-05T12:30:07;33.90;32.70
1786;DHT22;890;48.158;11.540;2022-07-05T12:32:53;34.10;32.00
1786;DHT22;890;48.158;11.540;2022-07-05T12:35:44;33.20;31.50
1786;DHT22;890;48.158;11.540;2022-07-05T12:38:14;32.30;32.70
1786;DHT22;890;48.158;11.540;2022-07-05T12:40:42;31.80;34.10
1786;DHT22;890;48.158;11.540;2022-07-05T12:43:10;31.70;34.10
1786;DHT22;890;48.158;11.540;2022-07-05T12:45:37;31.40;34.60
1786;DHT22;890;48.158;11.540;2022-07-05T12:48:04;31.20;35.30
1786;DHT22;890;48.158;11.540;2022-07-05T12:50:47;31.20;35.30
1786;DHT22;890;48.158;11.540;2022-07-05T12:53:13;31.30;34.70
1786;DHT22;890;48.158;11.540;2022-07-05T12:56:06;31.40;34.10
1786;DHT22;890;48.158;11.540;2022-07-05T12:58:56;31.10;33.90
1786;DHT22;890;48.158;11.540;2022-07-05T13:01:25;30.70;33.90
1786;DHT22;890;48.158;11.540;2022-07-05T13:06:51;29.60;34.40
1786;DHT22;890;48.158;11.540;2022-07-05T13:09:36;29.10;34.90
1786;DHT22;890;48.158;11.540;2022-07-05T13:14:31;28.70;36.20
1786;DHT22;890;48.158;11.540;2022-07-05T13:16:56;28.70;36.20
1786;DHT22;890;48.158;11.540;2022-07-05T13:19:22;28.50;37.00
1786;DHT22;890;48.158;11.540;2022-07-05T13:21:47;28.30;36.60
1786;DHT22;890;48.158;11.540;2022-07-05T13:24:13;28.10;36.70
1786;DHT22;890;48.158;11.540;2022-07-05T13:26:38;28.00;35.50
1786;DHT22;890;48.158;11.540;2022-07-05T13:29:04;27.90;35.90
1786;DHT22;890;48.158;11.540;2022-07-05T13:31:30;27.90;35.80
1786;DHT22;890;48.158;11.540;2022-07-05T13:33:57;27.90;36.10
1786;DHT22;890;48.158;11.540;2022-07-05T13:36:23;27.80;35.40
1786;DHT22;890;48.158;11.540;2022-07-05T13:38:48;27.80;35.80
1786;DHT22;890;48.158;11.540;2022-07-05T13:41:14;27.80;35.90
1786;DHT22;890;48.158;11.540;2022-07-05T13:43:39;27.90;35.90
1786;DHT22;890;48.158;11.540;2022-07-05T13:46:05;28.00;36.10
1786;DHT22;890;48.158;11.540;2022-07-05T13:48:32;28.00;36.90
1786;DHT22;890;48.158;11.540;2022-07-05T13:50:59;28.00;37.20
1786;DHT22;890;48.158;11.540;2022-07-05T13:53:24;28.10;37.70
1786;DHT22;890;48.158;11.540;2022-07-05T13:55:50;28.20;37.50
1786;DHT22;890;48.158;11.540;2022-07-05T13:58:15;28.10;37.20
1786;DHT22;890;48.158;11.540;2022-07-05T14:00:41;28.00;37.40
1786;DHT22;890;48.158;11.540;2022-07-05T14:03:06;28.00;37.40
1786;DHT22;890;48.158;11.540;2022-07-05T14:05:32;28.00;37.60
1786;DHT22;890;48.158;11.540;2022-07-05T14:07:58;28.00;37.40
1786;DHT22;890;48.158;11.540;2022-07-05T14:10:23;27.90;37.70
1786;DHT22;890;48.158;11.540;2022-07-05T14:12:49;28.00;37.90
1786;DHT22;890;48.158;11.540;2022-07-05T14:15:15;28.10;37.60
1786;DHT22;890;48.158;11.540;2022-07-05T14:17:40;28.10;37.70
1786;DHT22;890;48.158;11.540;2022-07-05T14:20:06;28.00;37.20
1786;DHT22;890;48.158;11.540;2022-07-05T14:22:32;27.90;37.20
1786;DHT22;890;48.158;11.540;2022-07-05T14:24:58;27.80;37.20
1786;DHT22;890;48.158;11.540;2022-07-05T14:27:23;27.60;37.20
1786;DHT22;890;48.158;11.540;2022-07-05T14:29:49;27.50;37.60
1786;DHT22;890;48.158;11.540;2022-07-05T14:32:14;27.50;37.50
1786;DHT22;890;48.158;11.540;2022-07-05T14:34:40;27.40;37.70
1786;DHT22;890;48.158;11.540;2022-07-05T14:37:06;27.30;37.80
1786;DHT22;890;48.158;11.540;2022-07-05T14:39:31;27.20;38.00
1786;DHT22;890;48.158;11.540;2022-07-05T14:41:57;27.40;38.40
1786;DHT22;890;48.158;11.540;2022-07-05T14:44:22;27.50;38.10
1786;DHT22;890;48.158;11.540;2022-07-05T14:46:48;27.70;37.80
1786;DHT22;890;48.158;11.540;2022-07-05T14:49:13;27.70;37.70
1786;DHT22;890;48.158;11.540;2022-07-05T14:51:39;27.80;37.70
1786;DHT22;890;48.158;11.540;2022-07-05T14:54:04;27.90;37.70
1786;DHT22;890;48.158;11.540;2022-07-05T14:56:30;28.00;37.70
1786;DHT22;890;48.158;11.540;2022-07-05T14:58:56;28.00;37.80
1786;DHT22;890;48.158;11.540;2022-07-05T15:01:21;28.00;37.60
1786;DHT22;890;48.158;11.540;2022-07-05T15:03:47;28.00;37.50
1786;DHT22;890;48.158;11.540;2022-07-05T15:06:12;28.20;37.50
1786;DHT22;890;48.158;11.540;2022-07-05T15:08:38;28.30;37.70
1786;DHT22;890;48.158;11.540;2022-07-05T15:11:04;28.20;37.60
1786;DHT22;890;48.158;11.540;2022-07-05T15:13:30;28.10;37.40
1786;DHT22;890;48.158;11.540;2022-07-05T15:15:56;28.00;37.40
1786;DHT22;890;48.158;11.540;2022-07-05T15:18:23;28.10;38.20
1786;DHT22;890;48.158;11.540;2022-07-05T15:20:52;28.10;37.30
1786;DHT22;890;48.158;11.540;2022-07-05T15:23:22;28.20;37.40
1786;DHT22;890;48.158;11.540;2022-07-05T15:25:53;27.80;37.30
1786;DHT22;890;48.158;11.540;2022-07-05T15:28:19;27.70;38.00
1786;DHT22;890;48.158;11.540;2022-07-05T15:30:45;27.90;37.80
1786;DHT22;890;48.158;11.540;2022-07-05T15:33:11;27.90;37.70
1786;DHT22;890;48.158;11.540;2022-07-05T15:35:36;27.80;38.20
1786;DHT22;890;48.158;11.540;2022-07-05T15:38:02;28.00;38.50
1786;DHT22;890;48.158;11.540;2022-07-05T15:40:29;28.00;38.40
1786;DHT22;890;48.158;11.540;2022-07-05T15:42:54;28.10;38.70
1786;DHT22;890;48.158;11.540;2022-07-05T15:45:20;28.10;38.40
1786;DHT22;890;48.158;11.540;2022-07-05T15:47:46;28.00;38.50
1786;DHT22;890;48.158;11.540;2022-07-05T15:50:11;28.00;38.70
1786;DHT22;890;48.158;11.540;2022-07-05T15:52:39;27.90;38.60
1786;DHT22;890;48.158;11.540;2022-07-05T15:55:05;27.90;38.70
1786;DHT22;890;48.158;11.540;2022-07-05T15:57:32;27.90;38.80
1786;DHT22;890;48.158;11.540;2022-07-05T15:59:58;28.00;39.00
1786;DHT22;890;48.158;11.540;2022-07-05T16:02:24;28.10;38.90
1786;DHT22;890;48.158;11.540;2022-07-05T16:04:51;28.20;39.20
1786;DHT22;890;48.158;11.540;2022-07-05T16:07:17;28.30;38.80
1786;DHT22;890;48.158;11.540;2022-07-05T16:09:43;28.20;38.50
1786;DHT22;890;48.158;11.540;2022-07-05T16:12:18;28.20;38.60
1786;DHT22;890;48.158;11.540;2022-07-05T16:14:43;28.20;38.20
1786;DHT22;890;48.158;11.540;2022-07-05T16:17:09;28.10;38.30
1786;DHT22;890;48.158;11.540;2022-07-05T16:19:35;28.00;38.40
1786;DHT22;890;48.158;11.540;2022-07-05T16:22:01;28.10;38.30
1786;DHT22;890;48.158;11.540;2022-07-05T16:24:26;28.00;38.30
1786;DHT22;890;48.158;11.540;2022-07-05T16:26:52;28.10;38.30
1786;DHT22;890;48.158;11.540;2022-07-05T16:29:17;28.20;38.30
1786;DHT22;890;48.158;11.540;2022-07-05T16:31:44;28.30;38.20
1786;DHT22;890;48.158;11.540;2022-07-05T16:34:10;28.20;38.00
1786;DHT22;890;48.158;11.540;2022-07-05T16:36:36;28.30;38.30
1786;DHT22;890;48.158;11.540;2022-07-05T16:39:02;28.40;38.50